Time;durP1;ratioP1;P1;durP2;ratioP2;P2;SDS_P1;SDS_P2;PMS_P1;PMS_P2;Temp;Humidity;BMP_temperature;BMP_pressure;BME280_temperature;BME280_humidity;BME280_pressure;Samples;Min_cycle;Max_cycle;Signal;HPM_P1;HPM_P2
2022/05/05 00:01:32;;;;;;;6.22;5.65;;;10.60;99.90;;;;;;5048634;28;20053;-57
2022/05/05 00:03:58;;;;;;;7.13;5.75;;;10.60;99.90;;;;;;5049977;28;20364;-57
2022/05/05 00:06:24;;;;;;;9.18;5.22;;;10.60;99.90;;;;;;5049849;28;20025;-57
2022/05/05 00:08:50;;;;;;;9.05;5.07;;;10.50;99.90;;;;;;5047327;28;20029;-56
2022/05/05 00:16:44;;;;;;;8.30;6.00;;;10.30;99.90;;;;;;5049858;28;20056;-57
2022/05/05 00:19:09;;;;;;;6.10;5.28;;;10.20;99.90;;;;;;5049753;28;20025;-52
2022/05/05 00:21:38;;;;;;;23.55;6.32;;;10.10;99.90;;;;;;5048621;28;20056;-50
2022/05/05 00:24:04;;;;;;;6.38;5.68;;;10.10;99.90;;;;;;5049051;28;20025;-54
2022/05/05 00:26:30;;;;;;;5.20;4.70;;;10.00;99.90;;;;;;5048975;28;20033;-57
2022/05/05 00:28:55;;;;;;;42.58;7.10;;;10.00;99.90;;;;;;5050120;28;20543;-57
2022/05/05 00:31:21;;;;;;;31.35;5.15;;;10.00;99.90;;;;;;5050037;28;20099;-57
2022/05/05 00:33:47;;;;;;;32.92;5.70;;;10.00;99.90;;;;;;5050418;28;20090;-52
2022/05/05 00:36:13;;;;;;;18.80;6.05;;;10.00;99.90;;;;;;5050157;28;20480;-57
2022/05/05 00:38:38;;;;;;;9.85;4.47;;;10.00;99.90;;;;;;5050171;28;20017;-56
2022/05/05 00:41:04;;;;;;;6.35;5.20;;;10.00;99.90;;;;;;5049965;28;20024;-58
2022/05/05 00:43:30;;;;;;;8.95;5.20;;;10.00;99.90;;;;;;5050076;28;20032;-56
2022/05/05 00:45:56;;;;;;;7.60;5.55;;;9.90;99.90;;;;;;5054046;28;20155;-56
2022/05/05 00:48:26;;;;;;;6.03;5.53;;;9.90;99.90;;;;;;5054101;28;20108;-54
2022/05/05 00:50:52;;;;;;;6.70;6.10;;;9.90;99.90;;;;;;5054406;28;20025;-57
2022/05/05 00:53:17;;;;;;;6.93;6.25;;;9.90;99.90;;;;;;5054011;28;20163;-57
2022/05/05 00:55:43;;;;;;;7.78;6.88;;;9.80;99.90;;;;;;5054016;28;20100;-58
2022/05/05 00:58:10;;;;;;;9.65;7.22;;;9.90;99.90;;;;;;5053807;28;20036;-56
2022/05/05 01:00:36;;;;;;;9.05;7.28;;;9.80;99.90;;;;;;5053985;28;20029;-58
2022/05/05 01:03:02;;;;;;;7.70;6.43;;;9.80;99.90;;;;;;5053953;28;20035;-56
2022/05/05 01:05:28;;;;;;;19.13;6.20;;;9.80;99.90;;;;;;5053921;28;20029;-58
2022/05/05 01:07:56;;;;;;;6.97;6.28;;;9.80;99.90;;;;;;5053921;28;20106;-57
2022/05/05 01:10:22;;;;;;;7.57;6.03;;;9.80;99.90;;;;;;5053556;28;20031;-54
2022/05/05 01:12:48;;;;;;;16.65;6.22;;;9.70;99.90;;;;;;5053774;28;20025;-52
2022/05/05 01:15:14;;;;;;;7.82;6.82;;;9.70;99.90;;;;;;5053630;28;20099;-52
2022/05/05 01:17:39;;;;;;;6.57;5.95;;;9.70;99.90;;;;;;5053724;28;20036;-55
2022/05/05 01:20:11;;;;;;;5.88;5.22;;;9.70;99.90;;;;;;5053584;28;20276;-56
2022/05/05 01:22:37;;;;;;;11.68;6.63;;;9.70;99.90;;;;;;5053597;28;20017;-55
2022/05/05 01:30:31;;;;;;;6.50;5.80;;;9.60;99.90;;;;;;5053522;28;20032;-54
2022/05/05 01:32:57;;;;;;;6.72;5.70;;;9.50;99.90;;;;;;5053308;28;20037;-53
2022/05/05 01:35:22;;;;;;;7.32;5.22;;;9.50;99.90;;;;;;5053210;28;20051;-57
2022/05/05 01:37:48;;;;;;;6.22;4.45;;;9.40;99.90;;;;;;5053159;28;20468;-55
2022/05/05 01:40:16;;;;;;;7.13;5.07;;;9.30;99.90;;;;;;5053091;28;20025;-56
2022/05/05 01:42:43;;;;;;;5.65;5.15;;;9.20;99.90;;;;;;5053065;28;20029;-58
2022/05/05 01:45:09;;;;;;;5.43;4.93;;;9.20;99.90;;;;;;5053092;28;20056;-57
2022/05/05 01:47:36;;;;;;;6.45;5.50;;;9.10;99.90;;;;;;5053102;28;20025;-55
2022/05/05 01:50:03;;;;;;;5.05;4.60;;;9.10;99.90;;;;;;5052931;28;20025;-55
2022/05/05 01:52:29;;;;;;;5.55;4.80;;;9.10;99.90;;;;;;5053300;28;20052;-54
2022/05/05 01:54:54;;;;;;;4.55;4.15;;;9.10;99.90;;;;;;5053066;28;20343;-57
2022/05/05 01:57:20;;;;;;;6.35;4.82;;;9.00;99.90;;;;;;5051741;28;20523;-55
2022/05/05 01:59:46;;;;;;;7.50;5.45;;;8.80;99.90;;;;;;5053089;28;20032;-55
2022/05/05 02:02:12;;;;;;;6.85;5.05;;;8.90;99.90;;;;;;5052819;28;20096;-55
2022/05/05 02:04:37;;;;;;;5.50;5.00;;;8.90;99.90;;;;;;5052826;28;20025;-54
2022/05/05 02:07:03;;;;;;;85.35;6.03;;;8.90;99.90;;;;;;5052769;28;20040;-54
2022/05/05 02:09:30;;;;;;;95.18;7.13;;;8.70;99.90;;;;;;5051459;28;20021;-57
2022/05/05 02:11:56;;;;;;;102.43;8.13;;;8.50;99.90;;;;;;5052649;28;20075;-57
2022/05/05 02:14:23;;;;;;;17.33;6.75;;;8.50;99.90;;;;;;5052356;28;20041;-57
2022/05/05 02:16:50;;;;;;;39.65;7.28;;;8.50;99.90;;;;;;5052513;28;20017;-55
2022/05/05 02:19:16;;;;;;;78.72;7.82;;;8.60;99.90;;;;;;5052541;28;20028;-53
2022/05/05 02:21:41;;;;;;;36.95;7.25;;;8.60;99.90;;;;;;5052948;28;20082;-55
2022/05/05 02:24:07;;;;;;;103.22;8.07;;;8.60;99.90;;;;;;5052368;28;20027;-57
2022/05/05 02:26:33;;;;;;;71.13;8.30;;;8.60;99.90;;;;;;5052473;28;20499;-53
2022/05/05 02:28:58;;;;;;;24.67;6.90;;;8.70;99.90;;;;;;5052149;28;20477;-58
2022/05/05 02:31:25;;;;;;;39.78;7.55;;;8.70;99.90;;;;;;5052634;28;20021;-56
2022/05/05 02:33:50;;;;;;;26.58;7.05;;;8.70;99.90;;;;;;5052311;28;20483;-58
2022/05/05 02:39:00;;;;;;;;;;;8.80;99.90;;;;;;5053058;28;20383;-55
2022/05/05 02:41:25;;;;;;;18.58;7.32;;;8.80;99.90;;;;;;5052139;28;19905;-55
2022/05/05 02:43:51;;;;;;;9.82;6.28;;;8.80;99.90;;;;;;5052048;28;20021;-59
2022/05/05 02:46:17;;;;;;;6.85;5.82;;;8.80;99.90;;;;;;5051927;28;20029;-56
2022/05/05 02:48:42;;;;;;;5.78;5.28;;;8.90;99.90;;;;;;5051843;28;20020;-56
2022/05/05 02:51:08;;;;;;;5.82;5.32;;;9.00;99.90;;;;;;5051978;28;20029;-55
2022/05/05 02:56:18;;;;;;;6.78;5.20;;;9.10;99.90;;;;;;5051821;28;20052;-54
2022/05/05 02:58:43;;;;;;;5.68;4.45;;;9.20;99.90;;;;;;5051608;28;20483;-53
2022/05/05 03:01:09;;;;;;;7.63;5.18;;;9.30;99.90;;;;;;5051863;28;20017;-58
2022/05/05 03:03:35;;;;;;;5.82;5.32;;;9.30;99.90;;;;;;5051668;28;20127;-56
2022/05/05 03:06:01;;;;;;;5.57;5.07;;;9.30;99.90;;;;;;5051572;28;20021;-54
2022/05/05 03:08:27;;;;;;;6.80;4.82;;;9.30;99.90;;;;;;5051289;28;20090;-55
2022/05/05 03:10:52;;;;;;;9.50;5.22;;;9.40;99.90;;;;;;5051522;28;20027;-57
2022/05/05 03:13:18;;;;;;;7.45;4.85;;;9.40;99.90;;;;;;5051337;28;20021;-54
2022/05/05 03:15:44;;;;;;;7.50;5.25;;;9.40;99.90;;;;;;5051333;28;20076;-54
2022/05/05 03:18:10;;;;;;;6.03;5.45;;;9.50;99.90;;;;;;5051400;28;20021;-55
2022/05/05 03:20:36;;;;;;;7.65;4.78;;;9.50;99.90;;;;;;5051356;28;20435;-54
2022/05/05 03:23:02;;;;;;;5.28;4.80;;;9.40;99.90;;;;;;5051466;28;20033;-54
2022/05/05 03:25:28;;;;;;;5.13;4.68;;;9.40;99.90;;;;;;5051185;28;20475;-56
2022/05/05 03:27:54;;;;;;;5.65;4.88;;;9.50;99.90;;;;;;5051183;28;20496;-56
2022/05/05 03:30:20;;;;;;;7.60;4.65;;;9.50;99.90;;;;;;5051013;28;20021;-55
2022/05/05 03:32:45;;;;;;;5.18;4.68;;;9.50;99.90;;;;;;5051013;28;20506;-57
2022/05/05 03:35:11;;;;;;;5.13;4.63;;;9.50;99.90;;;;;;5051066;28;20048;-56
2022/05/05 03:37:37;;;;;;;9.88;4.30;;;9.50;99.90;;;;;;5051001;28;20539;-57
2022/05/05 03:40:03;;;;;;;3.90;3.50;;;9.50;99.90;;;;;;5051465;28;20025;-56
2022/05/05 03:42:29;;;;;;;4.55;4.15;;;9.60;99.90;;;;;;5050962;28;20048;-56
2022/05/05 03:44:54;;;;;;;4.70;4.15;;;9.60;99.90;;;;;;5051116;28;20051;-55
2022/05/05 03:47:20;;;;;;;4.95;4.50;;;9.60;99.90;;;;;;5050907;28;20271;-57
2022/05/05 03:49:46;;;;;;;4.43;4.03;;;9.60;99.90;;;;;;5050785;28;20040;-58
2022/05/05 03:52:12;;;;;;;5.68;4.68;;;9.60;99.90;;;;;;5050650;28;20320;-57
2022/05/05 03:54:38;;;;;;;5.93;4.38;;;9.50;99.90;;;;;;5050698;28;20135;-56
2022/05/05 03:57:04;;;;;;;4.70;4.30;;;9.60;99.90;;;;;;5050308;28;20107;-54
2022/05/05 03:59:29;;;;;;;4.13;3.72;;;9.60;99.90;;;;;;5050571;28;20056;-56
2022/05/05 04:01:55;;;;;;;4.63;4.22;;;9.50;99.90;;;;;;5050573;28;20053;-59
2022/05/05 04:04:21;;;;;;;4.30;3.90;;;9.50;99.90;;;;;;5050537;28;20092;-53
2022/05/05 04:06:46;;;;;;;5.10;4.30;;;9.50;99.90;;;;;;5050595;28;20120;-58
2022/05/05 04:09:12;;;;;;;4.32;3.95;;;9.40;99.90;;;;;;5051533;28;20036;-57
2022/05/05 04:11:38;;;;;;;4.80;4.25;;;9.40;99.90;;;;;;5051145;28;20033;-57
2022/05/05 04:14:04;;;;;;;6.00;4.55;;;9.30;99.90;;;;;;5051190;28;20033;-56
2022/05/05 04:16:33;;;;;;;6.85;4.40;;;9.20;99.90;;;;;;5051320;28;20040;-57
2022/05/05 04:19:01;;;;;;;4.68;4.28;;;9.20;99.90;;;;;;5050971;28;20120;-57
2022/05/05 04:21:27;;;;;;;11.27;5.15;;;9.10;99.90;;;;;;5051097;28;20032;-54
2022/05/05 04:23:52;;;;;;;6.53;4.65;;;9.00;99.90;;;;;;5051488;28;20040;-55
2022/05/05 04:26:19;;;;;;;8.48;4.90;;;9.00;99.90;;;;;;5051359;28;20026;-57
2022/05/05 04:28:47;;;;;;;8.32;4.70;;;9.00;99.90;;;;;;5049787;28;20476;-55
2022/05/05 04:31:14;;;;;;;14.93;5.55;;;9.00;99.90;;;;;;5051172;28;20479;-54
2022/05/05 04:33:40;;;;;;;16.17;6.70;;;9.10;99.90;;;;;;5051112;28;20029;-55
2022/05/05 04:36:07;;;;;;;6.00;4.30;;;9.10;99.90;;;;;;5051036;28;20067;-57
2022/05/05 04:38:33;;;;;;;7.45;4.45;;;9.00;99.90;;;;;;5050910;28;20027;-55
2022/05/05 04:40:59;;;;;;;8.98;4.28;;;9.00;99.90;;;;;;5051123;28;20021;-57
2022/05/05 04:43:28;;;;;;;10.38;4.78;;;9.00;99.90;;;;;;5051231;28;20074;-55
2022/05/05 04:45:53;;;;;;;7.43;4.28;;;9.00;99.90;;;;;;5049913;28;20074;-58
2022/05/05 04:48:19;;;;;;;6.28;4.68;;;9.00;99.90;;;;;;5050554;28;20486;-58
2022/05/05 04:50:45;;;;;;;8.70;4.50;;;9.00;99.90;;;;;;5050956;28;20079;-59
2022/05/05 04:53:11;;;;;;;17.50;5.03;;;9.00;99.90;;;;;;5049998;28;20059;-55
2022/05/05 04:55:36;;;;;;;7.30;4.72;;;9.10;99.90;;;;;;5050285;28;20033;-52
2022/05/05 04:58:02;;;;;;;4.47;4.07;;;9.10;99.90;;;;;;5050759;28;20581;-53
2022/05/05 05:00:29;;;;;;;5.90;4.50;;;9.20;99.90;;;;;;5050925;28;20021;-55
2022/05/05 05:02:58;;;;;;;7.30;5.10;;;9.30;99.90;;;;;;5050896;28;20016;-57
2022/05/05 05:05:23;;;;;;;7.43;5.05;;;9.40;99.90;;;;;;5051189;28;20021;-56
2022/05/05 05:07:49;;;;;;;8.23;4.93;;;9.40;99.90;;;;;;5051080;28;20056;-58
2022/05/05 05:10:15;;;;;;;10.48;4.85;;;9.50;99.90;;;;;;5050923;28;20032;-57
2022/05/05 05:12:40;;;;;;;13.13;6.07;;;9.60;99.90;;;;;;5050990;28;20607;-57
2022/05/05 05:15:07;;;;;;;7.57;6.57;;;9.70;99.90;;;;;;5050879;28;20045;-56
2022/05/05 05:17:33;;;;;;;11.35;4.82;;;9.80;99.90;;;;;;5050231;28;20049;-53
2022/05/05 05:19:59;;;;;;;9.90;5.72;;;9.80;99.90;;;;;;5050847;28;20057;-57
2022/05/05 05:22:25;;;;;;;7.40;4.60;;;9.90;99.90;;;;;;5049656;28;20021;-55
2022/05/05 05:24:50;;;;;;;7.05;4.18;;;10.00;99.90;;;;;;5050836;28;20029;-58
2022/05/05 05:27:16;;;;;;;5.32;4.50;;;10.10;99.90;;;;;;5050858;28;20025;-57
2022/05/05 05:29:42;;;;;;;5.43;4.47;;;10.10;99.90;;;;;;5050341;28;20029;-57
2022/05/05 05:32:08;;;;;;;6.18;3.90;;;10.20;99.90;;;;;;5053725;28;20032;-57
2022/05/05 05:34:33;;;;;;;11.38;4.13;;;10.30;99.90;;;;;;5054452;28;20048;-56
2022/05/05 05:36:59;;;;;;;7.03;4.43;;;10.30;99.90;;;;;;5054343;28;20041;-56
2022/05/05 05:39:25;;;;;;;4.88;4.38;;;10.40;99.90;;;;;;5052945;28;20077;-52
2022/05/05 05:41:51;;;;;;;4.95;4.55;;;10.50;99.90;;;;;;5054521;28;20668;-54
2022/05/05 05:44:17;;;;;;;5.13;4.63;;;10.60;99.90;;;;;;5054487;28;20029;-56
2022/05/05 05:46:43;;;;;;;5.65;4.05;;;10.70;99.90;;;;;;5054056;28;20096;-52
2022/05/05 05:49:09;;;;;;;4.68;3.65;;;10.90;99.90;;;;;;5054398;28;20021;-57
2022/05/05 05:51:35;;;;;;;5.10;3.95;;;11.00;99.90;;;;;;5053662;28;20111;-54
2022/05/05 05:54:01;;;;;;;4.45;3.92;;;11.10;99.90;;;;;;5054190;28;20032;-55
2022/05/05 05:56:27;;;;;;;9.75;4.57;;;11.10;99.90;;;;;;5054136;28;20192;-57
2022/05/05 05:58:53;;;;;;;7.25;3.72;;;11.20;99.90;;;;;;5054210;28;20025;-59
2022/05/05 06:01:19;;;;;;;5.07;4.57;;;11.20;99.90;;;;;;5054009;28;20095;-57
2022/05/05 06:03:53;;;;;;;5.30;4.80;;;11.30;99.90;;;;;;5054082;28;20353;-58
2022/05/05 06:06:20;;;;;;;6.25;4.75;;;11.40;99.90;;;;;;5053720;28;20024;-53
2022/05/05 06:08:46;;;;;;;8.35;4.75;;;11.60;99.90;;;;;;5053926;28;20548;-56
2022/05/05 06:11:13;;;;;;;7.22;4.53;;;11.70;99.90;;;;;;5053886;28;20012;-52
2022/05/05 06:13:39;;;;;;;5.07;4.57;;;11.90;99.90;;;;;;5053662;28;20056;-56
2022/05/05 06:16:06;;;;;;;9.13;6.00;;;12.00;99.90;;;;;;5053389;28;20033;-52
2022/05/05 06:18:35;;;;;;;18.00;10.05;;;12.00;99.90;;;;;;5053591;28;20024;-53
2022/05/05 06:21:01;;;;;;;15.65;9.65;;;12.10;99.90;;;;;;5053706;28;20469;-56
2022/05/05 06:23:27;;;;;;;13.88;10.70;;;12.20;99.90;;;;;;5053596;28;20082;-56
2022/05/05 06:25:52;;;;;;;13.90;10.60;;;12.30;99.90;;;;;;5053341;28;20128;-56
2022/05/05 06:28:18;;;;;;;14.07;11.27;;;12.30;99.90;;;;;;5053730;28;20040;-52
2022/05/05 06:30:44;;;;;;;12.52;9.82;;;12.40;99.90;;;;;;5053296;28;20098;-57
2022/05/05 06:33:09;;;;;;;16.63;10.45;;;12.50;99.90;;;;;;5053500;28;20021;-55
2022/05/05 06:35:36;;;;;;;14.20;10.35;;;12.40;99.90;;;;;;5053418;28;20057;-57
2022/05/05 06:38:02;;;;;;;16.38;12.27;;;12.70;99.90;;;;;;5053408;28;20111;-57
2022/05/05 06:40:28;;;;;;;18.63;11.88;;;12.80;99.90;;;;;;5052774;28;20025;-56
2022/05/05 06:42:54;;;;;;;19.13;11.30;;;12.90;99.90;;;;;;5052667;28;20045;-55
2022/05/05 06:45:20;;;;;;;14.60;10.63;;;12.90;99.90;;;;;;5053037;28;20457;-59
2022/05/05 06:47:45;;;;;;;19.60;12.55;;;13.10;99.90;;;;;;5053090;28;20029;-56
2022/05/05 06:50:11;;;;;;;11.63;9.07;;;13.20;99.90;;;;;;5053116;28;20531;-55
2022/05/05 06:52:37;;;;;;;12.98;8.77;;;13.00;99.90;;;;;;5053062;28;20092;-58
2022/05/05 06:55:04;;;;;;;14.77;9.50;;;13.00;99.90;;;;;;5053231;28;20033;-57
2022/05/05 06:57:30;;;;;;;13.93;10.35;;;13.20;99.90;;;;;;5051636;28;20031;-55
2022/05/05 06:59:55;;;;;;;10.60;9.43;;;13.40;99.90;;;;;;5051939;28;20115;-57
2022/05/05 07:02:22;;;;;;;12.93;10.05;;;13.40;99.90;;;;;;5051711;28;20075;-59
2022/05/05 07:07:32;;;;;;;10.05;8.23;;;13.80;99.90;;;;;;5051406;28;20419;-56
2022/05/05 07:12:42;;;;;;;14.50;7.75;;;13.90;99.90;;;;;;5051472;28;20048;-57
2022/05/05 07:15:08;;;;;;;17.50;8.27;;;14.10;99.90;;;;;;5050751;28;20049;-57
2022/05/05 07:17:34;;;;;;;12.43;7.78;;;14.20;99.90;;;;;;5050929;28;20029;-55
2022/05/05 07:19:59;;;;;;;14.85;8.98;;;14.40;99.90;;;;;;5050292;28;20035;-57
2022/05/05 07:22:25;;;;;;;15.18;6.78;;;14.40;99.90;;;;;;5050216;28;20112;-58
2022/05/05 07:24:51;;;;;;;9.38;6.45;;;14.40;99.90;;;;;;5050472;28;20032;-57
2022/05/05 07:27:16;;;;;;;13.43;6.88;;;14.40;99.90;;;;;;5050846;28;20029;-56
2022/05/05 07:29:42;;;;;;;9.88;5.95;;;14.40;99.90;;;;;;5050752;28;20453;-56
2022/05/05 07:32:08;;;;;;;7.53;5.53;;;14.50;99.90;;;;;;5051154;28;20032;-56
2022/05/05 07:34:34;;;;;;;6.00;5.32;;;14.50;99.90;;;;;;5051284;28;20059;-58
2022/05/05 07:37:00;;;;;;;10.93;6.55;;;14.60;99.90;;;;;;5051903;28;20033;-54
2022/05/05 07:39:26;;;;;;;10.90;4.75;;;14.70;99.90;;;;;;5051782;28;20033;-55
2022/05/05 07:41:52;;;;;;;8.18;5.28;;;14.80;99.90;;;;;;5051689;28;20033;-56
2022/05/05 07:44:17;;;;;;;6.38;4.82;;;14.90;99.90;;;;;;5051867;28;20111;-58
2022/05/05 07:46:43;;;;;;;3.75;3.08;;;15.00;99.90;;;;;;5051907;28;20029;-61
2022/05/05 07:49:09;;;;;;;3.63;3.33;;;15.10;99.90;;;;;;5052006;28;20025;-60
2022/05/05 07:51:35;;;;;;;4.13;3.70;;;15.20;99.90;;;;;;5051465;28;20025;-61
2022/05/05 07:56:46;;;;;;;3.47;2.90;;;15.40;99.90;;;;;;5051970;28;20098;-61
2022/05/05 07:59:12;;;;;;;6.00;4.18;;;15.50;99.90;;;;;;5051608;28;20013;-61
2022/05/05 08:01:37;;;;;;;7.65;4.57;;;15.50;99.90;;;;;;5051508;28;20368;-61
2022/05/05 08:04:04;;;;;;;8.15;3.75;;;15.60;99.90;;;;;;5051770;28;20025;-62
2022/05/05 08:06:31;;;;;;;3.45;3.00;;;15.70;99.90;;;;;;5051550;28;20017;-61
2022/05/05 08:08:56;;;;;;;6.43;3.33;;;15.60;99.90;;;;;;5051754;28;20028;-61
2022/05/05 08:11:22;;;;;;;4.78;3.78;;;15.50;99.90;;;;;;5050316;28;20422;-61
2022/05/05 08:13:48;;;;;;;9.23;3.63;;;15.60;99.90;;;;;;5051624;28;20036;-61
2022/05/05 08:16:13;;;;;;;6.50;4.28;;;15.90;99.90;;;;;;5051359;28;20080;-62
2022/05/05 08:18:39;;;;;;;8.38;4.22;;;16.10;99.90;;;;;;5051303;28;20098;-61
2022/05/05 08:21:06;;;;;;;3.78;3.47;;;16.20;99.90;;;;;;5051407;28;20067;-61
2022/05/05 08:23:32;;;;;;;6.55;3.83;;;16.50;99.90;;;;;;5051260;28;20115;-61
2022/05/05 08:28:43;;;;;;;9.52;3.53;;;16.80;99.90;;;;;;5051671;28;20036;-55
2022/05/05 08:31:10;;;;;;;4.95;3.50;;;17.00;99.90;;;;;;5051229;28;20021;-58
2022/05/05 08:33:38;;;;;;;4.43;2.60;;;16.90;99.90;;;;;;5051213;28;20033;-55
2022/05/05 08:36:05;;;;;;;3.25;2.45;;;17.20;99.90;;;;;;5051307;28;20430;-56
2022/05/05 08:38:53;;;;;;;5.47;2.85;;;17.40;99.90;;;;;;5051337;28;20356;-57
2022/05/05 08:41:19;;;;;;;6.28;3.03;;;17.50;99.90;;;;;;5051126;28;20025;-56
2022/05/05 08:43:44;;;;;;;7.05;2.97;;;17.50;99.90;;;;;;5051147;28;20036;-52
2022/05/05 08:46:13;;;;;;;6.13;3.20;;;17.50;99.90;;;;;;5051276;28;20021;-53
2022/05/05 08:48:40;;;;;;;4.72;3.30;;;18.00;99.90;;;;;;5051156;28;20088;-57
2022/05/05 08:51:09;;;;;;;10.68;4.18;;;18.10;99.90;;;;;;5050920;28;20631;-58
2022/05/05 08:53:37;;;;;;;3.75;2.45;;;18.60;99.90;;;;;;5050410;28;20102;-59
2022/05/05 08:56:04;;;;;;;2.67;2.30;;;18.90;99.90;;;;;;5050545;28;20071;-56
2022/05/05 08:58:31;;;;;;;2.50;2.22;;;19.40;99.90;;;;;;5051096;28;20037;-56
2022/05/05 09:00:57;;;;;;;7.82;2.70;;;19.70;99.80;;;;;;5051135;28;20695;-54
2022/05/05 09:03:24;;;;;;;10.30;2.58;;;19.80;99.60;;;;;;5050685;28;20021;-57
2022/05/05 09:05:52;;;;;;;2.85;2.60;;;19.80;98.80;;;;;;5052886;28;20024;-55
2022/05/05 09:08:23;;;;;;;3.22;2.97;;;19.70;99.50;;;;;;5055039;28;20657;-57
2022/05/05 09:10:50;;;;;;;5.45;3.42;;;19.40;97.20;;;;;;5054992;28;20029;-57
2022/05/05 09:13:23;;;;;;;3.15;2.55;;;19.30;96.90;;;;;;5055080;28;20640;-54
2022/05/05 09:15:49;;;;;;;3.55;2.60;;;19.80;96.00;;;;;;5054922;28;20059;-56
2022/05/05 09:18:20;;;;;;;5.22;2.85;;;20.40;95.60;;;;;;5053605;28;20029;-56
2022/05/05 09:20:47;;;;;;;3.65;2.58;;;20.20;93.90;;;;;;5054839;28;20024;-53
2022/05/05 09:24:34;;;;;;;5.50;3.00;;;20.30;92.50;;;;;;5054939;28;20353;-58
2022/05/05 09:26:30;;;;;;;3.83;3.00;;;20.00;94.20;;;;;;5054453;28;20040;-58
2022/05/05 09:28:57;;;;;;;3.83;2.80;;;19.90;95.60;;;;;;5054887;28;20028;-57
2022/05/05 09:31:23;;;;;;;3.38;2.75;;;19.70;94.10;;;;;;5054641;28;20071;-57
2022/05/05 09:33:49;;;;;;;3.33;2.40;;;20.30;93.90;;;;;;5054774;28;20155;-54
2022/05/05 09:36:17;;;;;;;2.47;2.28;;;20.20;91.90;;;;;;5054653;28;20025;-58
2022/05/05 09:39:00;;;;;;;7.07;2.95;;;20.40;91.50;;;;;;5053903;28;20021;-53
2022/05/05 09:41:32;;;;;;;7.43;3.72;;;20.00;91.40;;;;;;5053661;28;20025;-55
2022/05/05 09:44:00;;;;;;;3.28;2.80;;;19.60;92.70;;;;;;5053426;28;20083;-54
2022/05/05 09:46:28;;;;;;;4.03;3.28;;;20.20;91.90;;;;;;5053581;28;20036;-56
2022/05/05 09:49:08;;;;;;;7.85;3.08;;;20.00;92.30;;;;;;5053825;28;20047;-54
2022/05/05 09:51:39;;;;;;;5.60;3.03;;;19.80;94.20;;;;;;5054135;28;20048;-50
2022/05/05 09:59:42;;;;;;;3.15;2.85;;;20.00;91.30;;;;;;5053598;28;20032;-56
2022/05/05 10:02:17;;;;;;;2.67;2.47;;;20.60;92.70;;;;;;5052005;28;20060;-55
2022/05/05 10:04:49;;;;;;;4.88;2.95;;;20.70;92.70;;;;;;5024815;28;20037;-56
2022/05/05 10:07:18;;;;;;;4.07;2.50;;;20.90;90.80;;;;;;5023247;28;20067;-57
2022/05/05 10:09:45;;;;;;;2.92;2.60;;;20.90;91.20;;;;;;5023736;28;20033;-56
2022/05/05 10:12:11;;;;;;;4.15;2.65;;;20.90;92.50;;;;;;5022618;28;21718;-54
2022/05/05 10:14:36;;;;;;;7.70;2.75;;;20.90;93.00;;;;;;5023378;28;20141;-56
2022/05/05 10:17:03;;;;;;;4.55;2.92;;;21.00;90.90;;;;;;5021935;28;20068;-55
2022/05/05 10:19:29;;;;;;;6.95;3.30;;;21.20;90.20;;;;;;5022605;28;20396;-54
2022/05/05 10:22:08;;;;;;;6.18;3.33;;;21.20;90.40;;;;;;5022367;28;20105;-57
2022/05/05 10:25:01;;;;;;;3.67;3.17;;;21.50;89.60;;;;;;5038209;28;20020;-57
2022/05/05 10:27:27;;;;;;;3.28;2.97;;;21.50;82.80;;;;;;5042404;28;20047;-57
2022/05/05 10:29:52;;;;;;;6.07;2.83;;;21.60;83.10;;;;;;5042159;28;20028;-55
2022/05/05 10:32:25;;;;;;;7.10;3.30;;;22.20;85.30;;;;;;5042621;28;20025;-57
2022/05/05 10:35:05;;;;;;;3.83;3.22;;;21.60;83.30;;;;;;5042351;28;20951;-53
2022/05/05 10:37:34;;;;;;;5.20;3.30;;;21.70;83.40;;;;;;5042090;28;20133;-56
2022/05/05 10:40:09;;;;;;;3.13;2.72;;;21.40;81.90;;;;;;5042780;28;20364;-52
2022/05/05 10:42:56;;;;;;;8.63;5.28;;;22.20;79.00;;;;;;5041728;28;20358;-57
2022/05/05 10:45:30;;;;;;;7.43;4.03;;;21.90;80.00;;;;;;5041889;28;20048;-55
2022/05/05 10:48:00;;;;;;;4.15;2.88;;;21.90;82.80;;;;;;5042356;28;20037;-57
2022/05/05 10:50:39;;;;;;;3.08;2.70;;;22.40;81.30;;;;;;5041366;28;20041;-55
2022/05/05 10:53:07;;;;;;;5.38;2.83;;;22.70;82.40;;;;;;5041433;28;20063;-57
2022/05/05 10:55:43;;;;;;;4.63;2.92;;;22.30;82.00;;;;;;5041393;28;20488;-57
2022/05/05 10:58:10;;;;;;;2.97;2.00;;;22.00;82.90;;;;;;5021919;28;20393;-56
2022/05/05 11:00:44;;;;;;;3.33;2.58;;;22.10;81.70;;;;;;5021580;28;20035;-55
2022/05/05 11:03:10;;;;;;;4.47;2.70;;;21.30;84.00;;;;;;5028185;28;20028;-53
2022/05/05 11:05:40;;;;;;;5.75;2.45;;;21.10;83.30;;;;;;5041449;28;20025;-57
2022/05/05 11:08:14;;;;;;;7.15;2.45;;;21.00;87.70;;;;;;5041169;28;20033;-58
2022/05/05 11:13:42;;;;;;;4.93;2.75;;;21.70;88.90;;;;;;5022301;28;20045;-56
2022/05/05 11:22:14;;;;;;;9.70;2.60;;;22.30;84.80;;;;;;5041315;28;20040;-58
2022/05/05 11:24:45;;;;;;;3.45;2.60;;;22.20;86.50;;;;;;5041566;28;20150;-57
2022/05/05 11:27:14;;;;;;;2.78;2.10;;;22.50;84.90;;;;;;5043826;28;20711;-57
2022/05/05 11:29:40;;;;;;;6.72;2.58;;;22.60;88.20;;;;;;5052256;28;20059;-57
2022/05/05 11:32:08;;;;;;;5.38;2.55;;;22.70;84.50;;;;;;5052429;28;20033;-56
2022/05/05 11:34:36;;;;;;;5.85;2.42;;;22.60;82.30;;;;;;5051863;28;20396;-58
2022/05/05 11:37:03;;;;;;;5.60;2.13;;;22.40;78.70;;;;;;5051615;28;20051;-58
2022/05/05 11:39:31;;;;;;;4.20;2.15;;;22.90;78.10;;;;;;5051964;28;20384;-58
2022/05/05 11:42:01;;;;;;;3.13;2.53;;;24.00;77.60;;;;;;5051795;28;20041;-57
2022/05/05 11:44:27;;;;;;;6.25;2.08;;;24.50;71.80;;;;;;5051818;28;20025;-57
2022/05/05 11:46:59;;;;;;;2.47;1.92;;;24.50;67.70;;;;;;5052154;28;20021;-57
2022/05/05 11:49:32;;;;;;;1.75;1.48;;;25.10;63.20;;;;;;5052125;28;20154;-57
2022/05/05 11:52:02;;;;;;;6.55;1.95;;;26.20;58.30;;;;;;5052027;28;20391;-58
2022/05/05 11:54:32;;;;;;;2.38;1.88;;;28.20;57.60;;;;;;5051854;28;20033;-57
2022/05/05 11:56:58;;;;;;;1.40;1.30;;;29.10;51.80;;;;;;5051807;28;20033;-57
2022/05/05 12:02:18;;;;;;;2.45;2.00;;;27.30;50.00;;;;;;5051812;28;20032;-58
2022/05/05 12:05:05;;;;;;;14.85;3.75;;;25.40;51.40;;;;;;5051646;28;20469;-57
2022/05/05 12:07:31;;;;;;;3.13;2.20;;;24.00;54.60;;;;;;5051621;28;20029;-57
2022/05/05 12:10:02;;;;;;;3.30;3.00;;;23.20;60.20;;;;;;5051903;28;20070;-57
2022/05/05 12:12:30;;;;;;;10.38;5.53;;;24.00;59.20;;;;;;5051678;28;20024;-57
2022/05/05 12:14:58;;;;;;;5.22;2.28;;;25.10;61.10;;;;;;5051525;28;20044;-58
2022/05/05 12:17:39;;;;;;;2.75;1.90;;;26.20;55.00;;;;;;5051468;28;20028;-56
2022/05/05 12:20:05;;;;;;;8.23;3.15;;;27.40;53.70;;;;;;5050288;28;20115;-58
2022/05/05 12:22:33;;;;;;;8.63;4.63;;;27.00;52.50;;;;;;5051589;28;20019;-58
2022/05/05 12:25:16;;;;;;;2.75;2.38;;;27.60;50.60;;;;;;5051473;28;20028;-58
2022/05/05 12:28:00;;;;;;;2.75;1.60;;;28.30;51.60;;;;;;5051326;28;20021;-59
2022/05/05 12:30:33;;;;;;;3.15;1.70;;;28.50;50.50;;;;;;5051539;28;20120;-59
2022/05/05 12:32:58;;;;;;;;;;;29.90;49.60;;;;;;5051785;28;20037;-59
2022/05/05 12:35:32;;;;;;;1.52;1.00;;;31.00;46.00;;;;;;5051427;28;19905;-56
2022/05/05 12:38:32;;;;;;;1.35;1.25;;;30.90;46.90;;;;;;5050771;28;20053;-56
2022/05/05 12:41:08;;;;;;;8.85;1.50;;;30.90;44.10;;;;;;5050362;28;20036;-56
2022/05/05 12:43:34;;;;;;;6.40;1.65;;;29.50;44.20;;;;;;5051171;28;20071;-56
2022/05/05 12:46:04;;;;;;;2.92;1.95;;;29.80;46.20;;;;;;5051418;28;20060;-56
2022/05/05 12:48:31;;;;;;;1.73;1.23;;;30.00;47.50;;;;;;5050996;28;20033;-56
2022/05/05 12:50:57;;;;;;;3.33;1.20;;;30.40;46.80;;;;;;5051250;28;20036;-57
2022/05/05 13:01:48;;;;;;;3.97;1.20;;;30.00;43.10;;;;;;5051314;28;20434;-57
2022/05/05 13:04:15;;;;;;;4.32;1.00;;;30.20;44.00;;;;;;5051192;28;20500;-57
2022/05/05 13:06:45;;;;;;;2.72;1.35;;;32.20;43.20;;;;;;5051073;28;20076;-57
2022/05/05 13:09:12;;;;;;;3.15;1.10;;;30.40;43.30;;;;;;5051131;28;20032;-57
2022/05/05 13:11:44;;;;;;;8.90;1.02;;;30.50;43.20;;;;;;5051051;28;20049;-55
2022/05/05 13:14:10;;;;;;;2.15;1.35;;;29.20;41.00;;;;;;5051107;28;20128;-56
2022/05/05 13:16:36;;;;;;;1.98;1.13;;;29.40;41.90;;;;;;5050312;28;20441;-55
2022/05/05 13:19:04;;;;;;;2.35;1.40;;;29.20;42.60;;;;;;5051137;28;20021;-56
2022/05/05 13:21:32;;;;;;;5.53;1.50;;;29.60;43.20;;;;;;5050641;28;20570;-57
2022/05/05 13:23:58;;;;;;;2.10;1.40;;;30.10;41.30;;;;;;5050731;28;20036;-56
2022/05/05 13:26:23;;;;;;;1.73;1.45;;;30.70;44.50;;;;;;5050709;28;20021;-58
2022/05/05 13:28:49;;;;;;;1.98;1.17;;;31.50;42.90;;;;;;5050970;28;20033;-56
2022/05/05 13:31:15;;;;;;;4.18;1.20;;;31.30;42.30;;;;;;5050681;28;20040;-56
2022/05/05 13:33:41;;;;;;;2.13;1.50;;;30.80;43.70;;;;;;5050757;28;20037;-55
2022/05/05 13:36:07;;;;;;;8.95;1.38;;;31.00;41.80;;;;;;5050398;28;20025;-56
2022/05/05 13:38:33;;;;;;;1.35;1.20;;;30.20;40.30;;;;;;5049839;28;20087;-57
2022/05/05 13:40:59;;;;;;;2.13;1.23;;;30.10;43.60;;;;;;5050383;28;20496;-56
2022/05/05 13:43:25;;;;;;;7.50;1.40;;;30.40;43.60;;;;;;5049962;28;20090;-56